createdAt,value
2018-03-20T00:00:02.237Z,87.96
2018-03-20T00:02:31.385Z,88.14
2018-03-20T00:04:59.896Z,88.26
2018-03-20T00:07:28.402Z,88.31
2018-03-20T00:09:57.303Z,88.06
2018-03-20T00:12:26.212Z,88.53
2018-03-20T00:14:55.268Z,88.62
2018-03-20T00:17:24.611Z,88.39
2018-03-20T00:19:54.073Z,89.13
2018-03-20T00:22:23.331Z,89.15
2018-03-20T00:24:51.609Z,88.96
2018-03-20T00:27:19.898Z,88.63
2018-03-20T00:29:48.199Z,88.79
2018-03-20T00:32:16.520Z,89.23
2018-03-20T00:34:45.584Z,89.78
2018-03-20T00:37:13.876Z,89.54
2018-03-20T00:39:42.340Z,89.86
2018-03-20T00:42:11.091Z,89.95
2018-03-20T00:44:39.369Z,90.04
2018-03-20T00:47:08.017Z,90.02
2018-03-20T00:49:37.245Z,89.72
2018-03-20T00:52:06.640Z,90.07
2018-03-20T00:54:36.522Z,90.55
2018-03-20T00:57:05.755Z,90.38
2018-03-20T00:59:35.109Z,90.48
2018-03-20T01:02:03.387Z,90.62
2018-03-20T01:04:32.487Z,90.97
2018-03-20T01:07:01.597Z,90.69
2018-03-20T01:09:30.483Z,90.69
2018-03-20T01:11:58.784Z,90.90
2018-03-20T01:14:27.384Z,91.24
2018-03-20T01:16:58.922Z,91.42
2018-03-20T01:19:27.350Z,91.66
2018-03-20T01:21:56.389Z,91.77
2018-03-20T01:24:25.396Z,91.89
2018-03-20T01:26:54.105Z,92.18
2018-03-20T01:29:23.240Z,91.78
2018-03-20T01:31:51.616Z,91.86
2018-03-20T01:34:20.088Z,91.88
2018-03-20T01:36:48.369Z,91.94
2018-03-20T01:39:16.752Z,91.96
2018-03-20T01:41:45.024Z,91.96
2018-03-20T01:44:14.461Z,91.81
2018-03-20T01:46:43.339Z,91.77
2018-03-20T01:49:12.224Z,91.70
2018-03-20T01:51:40.508Z,91.56
2018-03-20T01:54:08.806Z,91.53
2018-03-20T01:56:37.668Z,91.88
2018-03-20T01:59:06.721Z,91.81
2018-03-20T02:01:36.057Z,91.47
2018-03-20T02:04:04.342Z,91.40
2018-03-20T02:06:32.619Z,91.54
2018-03-20T02:09:01.100Z,91.44
2018-03-20T02:11:29.456Z,91.31
2018-03-20T02:13:58.515Z,91.12
2018-03-20T02:16:27.072Z,90.88
2018-03-20T02:18:55.920Z,90.67
2018-03-20T02:21:25.042Z,90.67
2018-03-20T02:23:53.329Z,90.30
2018-03-20T02:26:21.908Z,90.25
2018-03-20T02:28:50.243Z,89.89
2018-03-20T02:31:20.460Z,89.39
2018-03-20T02:33:49.524Z,89.29
2018-03-20T02:36:18.122Z,89.25
2018-03-20T02:38:46.896Z,89.08
2018-03-20T02:41:15.192Z,88.81
2018-03-20T02:43:43.466Z,88.74
2018-03-20T02:46:12.129Z,88.87
2018-03-20T02:48:41.139Z,88.73
2018-03-20T02:51:09.432Z,88.82
2018-03-20T02:53:37.692Z,88.32
2018-03-20T02:56:05.985Z,88.68
2018-03-20T02:58:34.263Z,88.62
2018-03-20T03:01:02.569Z,88.52
2018-03-20T03:03:31.604Z,88.65
2018-03-20T03:05:59.907Z,88.36
2018-03-20T03:08:28.177Z,88.25
2018-03-20T03:10:56.549Z,88.06
2018-03-20T03:13:24.844Z,88.07
2018-03-20T03:15:53.136Z,87.75
2018-03-20T03:18:21.628Z,87.40
2018-03-20T03:20:49.943Z,87.26
2018-03-20T03:23:19.030Z,86.90
2018-03-20T03:25:47.289Z,87.16
2018-03-20T03:28:16.683Z,86.85
2018-03-20T03:30:44.948Z,86.78
2018-03-20T03:33:13.261Z,86.43
2018-03-20T03:35:42.301Z,85.95
2018-03-20T03:38:10.607Z,86.28
2018-03-20T03:40:39.393Z,86.02
2018-03-20T03:43:07.720Z,86.32
2018-03-20T03:45:36.325Z,86.18
2018-03-20T03:48:04.691Z,86.76
2018-03-20T03:50:32.956Z,87.04
2018-03-20T03:53:01.221Z,86.74
2018-03-20T03:55:30.333Z,86.79
2018-03-20T03:57:58.604Z,87.03
2018-03-20T04:00:27.721Z,86.67
2018-03-20T04:02:57.390Z,85.62
2018-03-20T04:05:26.285Z,84.77
2018-03-20T04:07:55.387Z,83.96
2018-03-20T04:10:25.900Z,83.00
2018-03-20T04:12:54.226Z,82.82
2018-03-20T04:15:22.636Z,82.79
2018-03-20T04:17:50.911Z,82.39
2018-03-20T04:20:19.185Z,82.24
2018-03-20T04:22:47.695Z,81.42
2018-03-20T04:25:16.043Z,82.13
2018-03-20T04:27:44.910Z,81.26
2018-03-20T04:30:13.453Z,81.10
2018-03-20T04:32:41.712Z,81.05
2018-03-20T04:35:10.269Z,80.04
2018-03-20T04:37:38.661Z,79.87
2018-03-20T04:40:06.927Z,80.30
2018-03-20T04:42:35.216Z,79.75
2018-03-20T04:45:03.493Z,79.35
2018-03-20T04:47:31.769Z,79.55
2018-03-20T04:50:00.139Z,79.09
2018-03-20T04:52:28.410Z,78.90
2018-03-20T04:54:57.491Z,78.52
2018-03-20T04:57:25.798Z,78.51
2018-03-20T04:59:54.973Z,78.22
2018-03-20T05:02:23.273Z,77.79
2018-03-20T05:04:52.088Z,77.27
2018-03-20T05:07:20.534Z,77.10
2018-03-20T05:09:48.803Z,76.95
2018-03-20T05:12:17.068Z,77.29
2018-03-20T05:14:45.410Z,77.27
2018-03-20T05:17:13.672Z,76.76
2018-03-20T05:19:47.541Z,76.93
2018-03-20T05:22:21.308Z,76.25
2018-03-20T05:24:50.156Z,76.39
2018-03-20T05:27:18.942Z,76.31
2018-03-20T05:29:47.199Z,76.13
2018-03-20T05:32:15.770Z,76.04
2018-03-20T05:34:45.003Z,75.87
2018-03-20T05:37:14.034Z,76.25
2018-03-20T05:39:42.325Z,75.98
2018-03-20T05:42:11.400Z,75.65
2018-03-20T05:44:40.085Z,75.79
2018-03-20T05:47:11.619Z,75.37
2018-03-20T05:52:44.022Z,75.19
2018-03-20T05:55:12.300Z,75.59
2018-03-20T05:57:40.585Z,75.85
2018-03-20T06:00:08.852Z,75.57
2018-03-20T06:02:37.119Z,75.77
2018-03-20T06:05:05.502Z,75.44
2018-03-20T06:07:33.769Z,75.67
2018-03-20T06:10:02.184Z,76.07
2018-03-20T06:12:30.667Z,76.02
2018-03-20T06:14:59.628Z,76.15
2018-03-20T06:17:27.894Z,76.11
2018-03-20T06:19:56.217Z,75.94
2018-03-20T06:22:24.599Z,76.25
2018-03-20T06:24:52.950Z,76.11
2018-03-20T06:27:21.213Z,75.62
2018-03-20T06:29:49.505Z,75.43
2018-03-20T06:32:17.892Z,75.28
2018-03-20T06:34:46.372Z,75.72
2018-03-20T06:37:14.745Z,75.81
2018-03-20T06:39:43.377Z,75.45
2018-03-20T06:42:11.688Z,75.50
2018-03-20T06:44:40.827Z,76.19
2018-03-20T06:47:09.821Z,75.17
2018-03-20T06:49:38.115Z,75.62
2018-03-20T06:52:06.500Z,75.73
2018-03-20T06:54:35.452Z,74.92
2018-03-20T06:57:03.829Z,74.77
2018-03-20T06:59:32.138Z,75.43
2018-03-20T07:02:00.403Z,75.20
2018-03-20T07:04:29.483Z,74.45
2018-03-20T07:06:57.743Z,75.18
2018-03-20T07:09:26.148Z,74.68
2018-03-20T07:11:54.421Z,75.11
2018-03-20T07:14:22.718Z,74.68
2018-03-20T07:16:51.195Z,75.11
2018-03-20T07:19:19.537Z,75.20
2018-03-20T07:21:48.557Z,74.57
2018-03-20T07:24:16.936Z,74.89
2018-03-20T07:26:45.223Z,74.20
2018-03-20T07:29:14.656Z,73.70
2018-03-20T07:31:43.646Z,72.75
2018-03-20T07:34:12.908Z,73.03
2018-03-20T07:36:41.188Z,71.52
2018-03-20T07:39:09.564Z,71.80
2018-03-20T07:41:37.864Z,71.75
2018-03-20T07:44:06.220Z,71.26
2018-03-20T07:46:34.477Z,71.33
2018-03-20T07:49:03.533Z,70.48
2018-03-20T07:51:32.281Z,70.19
2018-03-20T07:54:00.578Z,69.86
2018-03-20T07:56:29.266Z,69.89
2018-03-20T07:58:57.548Z,68.45
2018-03-20T08:01:25.868Z,68.03
2018-03-20T08:03:55.028Z,68.61
2018-03-20T08:06:23.304Z,67.00
2018-03-20T08:08:51.697Z,67.45
2018-03-20T08:11:20.049Z,67.00
2018-03-20T08:13:48.376Z,67.04
2018-03-20T08:16:16.726Z,66.24
2018-03-20T08:18:45.801Z,66.09
2018-03-20T08:21:14.056Z,65.26
2018-03-20T08:23:43.276Z,64.66
2018-03-20T08:26:11.549Z,64.04
2018-03-20T08:28:39.830Z,64.34
2018-03-20T08:31:08.255Z,64.32
2018-03-20T08:33:36.591Z,64.23
2018-03-20T08:36:04.877Z,63.92
2018-03-20T08:38:33.144Z,64.15
2018-03-20T08:41:01.414Z,63.59
2018-03-20T08:43:30.124Z,62.62
2018-03-20T08:45:58.404Z,63.71
2018-03-20T08:48:27.569Z,63.13
2018-03-20T08:50:56.811Z,61.43
2018-03-20T08:53:25.080Z,61.71
2018-03-20T08:55:54.175Z,61.70
2018-03-20T08:58:22.536Z,60.71
2018-03-20T09:00:50.934Z,59.69
2018-03-20T09:03:19.198Z,59.56
2018-03-20T09:05:47.461Z,59.94
2018-03-20T09:08:15.758Z,59.76
2018-03-20T09:10:44.029Z,60.01
2018-03-20T09:13:13.247Z,57.42
2018-03-20T09:15:41.735Z,57.80
2018-03-20T09:18:09.996Z,57.79
2018-03-20T09:20:38.378Z,57.99
2018-03-20T09:23:06.661Z,58.25
2018-03-20T09:25:35.303Z,57.83
2018-03-20T09:28:04.337Z,58.62
2018-03-20T09:30:33.125Z,56.82
2018-03-20T09:33:01.408Z,57.53
2018-03-20T09:35:29.731Z,56.22
2018-03-20T09:37:57.988Z,55.58
2018-03-20T09:40:26.772Z,56.00
2018-03-20T09:42:55.135Z,55.75
2018-03-20T09:45:23.399Z,55.50
2018-03-20T09:47:51.752Z,56.81
2018-03-20T09:50:20.888Z,57.32
2018-03-20T09:52:49.181Z,55.07
2018-03-20T09:55:17.552Z,55.36
2018-03-20T09:57:45.808Z,54.27
2018-03-20T10:00:14.115Z,53.61
2018-03-20T10:02:42.411Z,52.20
2018-03-20T10:05:10.704Z,52.75
2018-03-20T10:07:39.747Z,53.42
2018-03-20T10:10:09.460Z,53.72
2018-03-20T10:12:37.755Z,53.68
2018-03-20T10:15:06.149Z,53.37
2018-03-20T10:17:34.451Z,52.74
2018-03-20T10:20:04.236Z,52.82
2018-03-20T10:22:32.930Z,52.84
2018-03-20T10:25:01.998Z,51.54
2018-03-20T10:27:30.807Z,50.83
2018-03-20T10:29:59.088Z,51.65
2018-03-20T10:32:27.388Z,51.37
2018-03-20T10:34:56.356Z,51.74
2018-03-20T10:37:25.156Z,50.38
2018-03-20T10:39:53.488Z,49.58
2018-03-20T10:42:21.747Z,48.67
2018-03-20T10:44:50.040Z,48.17
2018-03-20T10:47:18.432Z,48.14
2018-03-20T10:49:47.549Z,47.19
2018-03-20T10:52:15.815Z,47.70
2018-03-20T10:54:44.288Z,46.66
2018-03-20T10:57:12.569Z,47.28
2018-03-20T10:59:40.829Z,46.79
2018-03-20T11:02:14.578Z,47.10
2018-03-20T11:04:43.077Z,46.91
2018-03-20T11:07:11.960Z,46.06
2018-03-20T11:09:40.248Z,44.97
2018-03-20T11:12:08.516Z,45.65
2018-03-20T11:14:36.819Z,44.81
2018-03-20T11:17:06.106Z,44.76
2018-03-20T11:19:35.886Z,44.79
2018-03-20T11:22:04.184Z,44.83
2018-03-20T11:24:33.289Z,43.94
2018-03-20T11:27:02.308Z,43.66
2018-03-20T11:29:31.340Z,43.69
2018-03-20T11:32:00.528Z,45.35
2018-03-20T11:34:28.815Z,45.23
2018-03-20T11:36:57.196Z,43.51
2018-03-20T11:39:25.591Z,44.90
2018-03-20T11:41:54.062Z,44.82
2018-03-20T11:44:22.346Z,44.57
2018-03-20T11:46:50.668Z,44.02
2018-03-20T11:49:19.701Z,44.73
2018-03-20T11:51:47.973Z,43.33
2018-03-20T11:54:16.274Z,44.20
2018-03-20T11:56:44.548Z,44.02
2018-03-20T11:59:12.960Z,44.00
2018-03-20T12:01:41.248Z,43.70
2018-03-20T12:04:09.928Z,42.54
2018-03-20T12:06:38.613Z,43.33
2018-03-20T12:12:33.527Z,43.18
2018-03-20T12:15:01.992Z,42.62
2018-03-20T12:17:31.712Z,43.51
2018-03-20T12:20:00.565Z,43.96
2018-03-20T12:22:28.829Z,43.59
2018-03-20T12:24:59.188Z,42.70
2018-03-20T12:27:27.464Z,43.20
2018-03-20T12:29:56.644Z,41.51
2018-03-20T12:32:25.777Z,41.63
2018-03-20T12:34:54.193Z,43.02
2018-03-20T12:37:24.489Z,42.45
2018-03-20T12:39:52.836Z,42.40
2018-03-20T12:42:22.401Z,41.61
2018-03-20T12:44:51.452Z,38.34
2018-03-20T12:47:21.100Z,35.10
2018-03-20T12:49:50.109Z,33.82
2018-03-20T12:52:20.529Z,31.66
2018-03-20T12:54:49.627Z,30.88
2018-03-20T12:57:21.018Z,29.59
2018-03-20T12:59:51.572Z,29.51
2018-03-20T13:02:20.767Z,28.94
2018-03-20T13:04:49.691Z,29.14
2018-03-20T13:07:19.157Z,28.53
2018-03-20T13:09:48.245Z,27.62
2018-03-20T13:12:16.885Z,28.28
2018-03-20T13:14:45.956Z,29.24
2018-03-20T13:17:14.283Z,29.88
2018-03-20T13:19:44.096Z,28.92
2018-03-20T13:22:12.406Z,27.81
2018-03-20T13:24:40.792Z,28.15
2018-03-20T13:27:09.289Z,27.56
2018-03-20T13:29:37.959Z,27.41
2018-03-20T13:32:06.251Z,28.72
2018-03-20T13:34:34.545Z,28.43
2018-03-20T13:37:02.910Z,26.47
2018-03-20T13:39:31.211Z,26.68
2018-03-20T13:42:00.313Z,27.10
2018-03-20T13:44:29.384Z,26.72
2018-03-20T13:46:58.267Z,27.37
2018-03-20T13:49:26.663Z,26.20
2018-03-20T13:51:56.097Z,24.95
2018-03-20T13:54:25.184Z,25.02
2018-03-20T13:56:53.813Z,24.40
2018-03-20T13:59:22.092Z,23.42
2018-03-20T14:01:50.487Z,23.17
2018-03-20T14:04:19.332Z,24.37
2018-03-20T14:06:49.404Z,25.26
2018-03-20T14:09:17.761Z,26.55
2018-03-20T14:11:46.148Z,27.03
2018-03-20T14:14:14.427Z,26.76
2018-03-20T14:16:43.953Z,28.90
2018-03-20T14:19:12.620Z,27.94
2018-03-20T14:21:41.543Z,27.44
2018-03-20T14:24:11.053Z,26.00
2018-03-20T14:26:39.966Z,26.74
2018-03-20T14:29:09.096Z,26.57
2018-03-20T14:31:37.604Z,26.87
2018-03-20T14:34:06.492Z,27.07
2018-03-20T14:36:34.909Z,27.93
2018-03-20T14:39:03.180Z,26.40
2018-03-20T14:41:31.609Z,27.03
2018-03-20T14:44:00.693Z,27.17
2018-03-20T14:46:28.956Z,29.25
2018-03-20T14:48:58.044Z,28.05
2018-03-20T14:51:26.335Z,27.77
2018-03-20T14:53:56.305Z,28.03
2018-03-20T14:56:25.406Z,26.67
2018-03-20T14:58:53.686Z,28.23
2018-03-20T15:01:22.862Z,29.01
2018-03-20T15:03:51.970Z,30.08
2018-03-20T15:06:22.788Z,30.88
2018-03-20T15:08:51.732Z,31.58
2018-03-20T15:11:20.088Z,31.48
2018-03-20T15:13:48.450Z,30.81
2018-03-20T15:16:17.749Z,31.89
2018-03-20T15:18:46.145Z,31.26
2018-03-20T15:21:15.233Z,30.82
2018-03-20T15:23:44.962Z,31.52
2018-03-20T15:26:13.300Z,29.97
2018-03-20T15:28:43.184Z,31.54
2018-03-20T15:31:12.213Z,32.28
2018-03-20T15:33:41.442Z,30.91
2018-03-20T15:36:10.181Z,30.57
2018-03-20T15:38:38.460Z,30.54
2018-03-20T15:41:07.589Z,30.46
2018-03-20T15:43:35.888Z,31.28
2018-03-20T15:46:05.075Z,30.80
2018-03-20T15:48:33.830Z,31.47
2018-03-20T15:51:04.332Z,30.72
2018-03-20T15:53:32.638Z,30.59
2018-03-20T15:56:00.902Z,32.31
2018-03-20T15:58:29.957Z,32.96
2018-03-20T16:00:58.248Z,34.89
2018-03-20T16:03:27.573Z,34.78
2018-03-20T16:05:56.815Z,36.38
2018-03-20T16:08:25.079Z,36.81
2018-03-20T16:10:53.341Z,38.64
2018-03-20T16:13:21.663Z,38.63
2018-03-20T16:15:49.929Z,39.25
2018-03-20T16:18:18.400Z,40.02
2018-03-20T16:20:46.698Z,40.23
2018-03-20T16:23:15.913Z,40.10
2018-03-20T16:25:44.860Z,40.42
2018-03-20T16:28:13.141Z,40.96
2018-03-20T16:30:41.443Z,41.07
2018-03-20T16:33:11.100Z,41.10
2018-03-20T16:35:40.152Z,41.31
2018-03-20T16:38:08.527Z,41.84
2018-03-20T16:40:36.823Z,41.67
2018-03-20T16:43:05.107Z,42.57
2018-03-20T16:45:33.455Z,43.06
2018-03-20T16:48:01.856Z,42.91
2018-03-20T16:50:30.128Z,43.13
2018-03-20T16:52:58.592Z,43.66
2018-03-20T16:55:26.985Z,42.47
2018-03-20T16:57:55.780Z,42.19
2018-03-20T17:00:24.679Z,43.00
2018-03-20T17:02:54.019Z,43.15
2018-03-20T17:05:23.072Z,43.68
2018-03-20T17:07:51.436Z,44.10
2018-03-20T17:10:20.736Z,44.18
2018-03-20T17:12:49.679Z,43.45
2018-03-20T17:15:18.021Z,44.12
2018-03-20T17:17:46.352Z,44.01
2018-03-20T17:20:15.388Z,44.37
2018-03-20T17:22:44.381Z,44.51
2018-03-20T17:25:12.587Z,45.63
2018-03-20T17:27:40.880Z,45.46
2018-03-20T17:30:10.283Z,45.50
2018-03-20T17:32:39.327Z,45.83
2018-03-20T17:35:07.788Z,46.11
2018-03-20T17:37:36.112Z,46.35
2018-03-20T17:40:04.403Z,46.91
2018-03-20T17:42:32.769Z,47.57
2018-03-20T17:45:01.792Z,47.16
2018-03-20T17:47:30.119Z,48.73
2018-03-20T17:49:58.497Z,49.76
2018-03-20T17:52:26.840Z,48.98
2018-03-20T17:54:55.931Z,48.70
2018-03-20T17:57:24.986Z,48.78
2018-03-20T17:59:53.260Z,49.03
2018-03-20T18:02:22.040Z,49.41
2018-03-20T18:04:50.685Z,49.50
2018-03-20T18:07:21.123Z,50.82
2018-03-20T18:09:49.399Z,50.87
2018-03-20T18:12:18.440Z,51.32
2018-03-20T18:14:46.733Z,50.88
2018-03-20T18:17:15.720Z,52.42
2018-03-20T18:19:44.074Z,52.17
2018-03-20T18:22:12.468Z,52.81
2018-03-20T18:24:40.743Z,52.91
2018-03-20T18:27:09.133Z,54.11
2018-03-20T18:29:37.519Z,53.93
2018-03-20T18:32:05.776Z,53.70
2018-03-20T18:34:34.187Z,55.26
2018-03-20T18:37:02.724Z,55.67
2018-03-20T18:39:31.614Z,55.39
2018-03-20T18:41:59.920Z,56.01
2018-03-20T18:44:28.224Z,57.41
2018-03-20T18:46:56.495Z,56.96
2018-03-20T18:49:25.078Z,57.55
2018-03-20T18:51:53.889Z,57.96
2018-03-20T18:54:23.639Z,57.42
2018-03-20T18:56:52.651Z,57.78
2018-03-20T18:59:20.969Z,57.37
2018-03-20T19:01:50.007Z,58.03
2018-03-20T19:04:18.266Z,58.55
2018-03-20T19:06:47.342Z,58.73
2018-03-20T19:09:15.746Z,61.42
2018-03-20T19:11:44.013Z,64.86
2018-03-20T19:14:13.074Z,63.99
2018-03-20T19:16:41.392Z,61.72
2018-03-20T19:19:10.754Z,61.34
2018-03-20T19:21:39.017Z,61.25
2018-03-20T19:24:08.260Z,60.59
2018-03-20T19:26:38.567Z,61.14
2018-03-20T19:29:07.159Z,61.79
2018-03-20T19:31:35.458Z,63.19
2018-03-20T19:34:04.501Z,63.48
2018-03-20T19:36:32.798Z,62.67
2018-03-20T19:39:03.396Z,61.77
2018-03-20T19:41:31.793Z,60.81
2018-03-20T19:44:00.333Z,58.62
2018-03-20T19:46:28.653Z,57.77
2018-03-20T19:48:56.939Z,57.80
2018-03-20T19:51:25.417Z,58.08
2018-03-20T19:53:54.623Z,57.66
2018-03-20T19:56:23.821Z,59.48
2018-03-20T19:58:53.627Z,60.28
2018-03-20T20:01:21.910Z,60.46
2018-03-20T20:03:50.260Z,59.93
2018-03-20T20:06:19.560Z,60.17
2018-03-20T20:08:48.721Z,61.37
2018-03-20T20:11:17.757Z,62.10
2018-03-20T20:13:47.611Z,61.96
2018-03-20T20:16:16.069Z,62.24
2018-03-20T20:18:44.461Z,61.93
2018-03-20T20:21:13.211Z,63.30
2018-03-20T20:23:43.098Z,62.29
2018-03-20T20:26:13.328Z,64.29
2018-03-20T20:28:42.405Z,64.54
2018-03-20T20:31:12.203Z,64.91
2018-03-20T20:33:40.515Z,65.59
2018-03-20T20:36:09.572Z,64.49
2018-03-20T20:38:38.857Z,65.96
2018-03-20T20:41:07.187Z,65.98
2018-03-20T20:43:36.241Z,65.40
2018-03-20T20:46:04.518Z,66.60
2018-03-20T20:48:33.163Z,66.92
2018-03-20T20:51:02.170Z,66.21
2018-03-20T20:53:31.545Z,66.01
2018-03-20T20:56:01.656Z,66.61
2018-03-20T20:58:30.852Z,66.92
2018-03-20T21:00:59.933Z,66.71
2018-03-20T21:03:28.248Z,66.10
2018-03-20T21:05:57.508Z,66.82
2018-03-20T21:08:26.395Z,65.94
2018-03-20T21:10:54.710Z,65.96
2018-03-20T21:13:23.779Z,66.49
2018-03-20T21:15:52.825Z,66.65
2018-03-20T21:18:21.900Z,67.19
2018-03-20T21:20:51.002Z,67.61
2018-03-20T21:23:20.048Z,66.98
2018-03-20T21:25:48.523Z,67.46
2018-03-20T21:28:16.833Z,67.06
2018-03-20T21:30:45.222Z,66.88
2018-03-20T21:33:13.648Z,67.50
2018-03-20T21:35:41.936Z,67.62
2018-03-20T21:38:10.583Z,67.67
2018-03-20T21:40:39.722Z,67.51
2018-03-20T21:43:08.890Z,68.66
2018-03-20T21:45:37.191Z,68.57
2018-03-20T21:48:05.690Z,68.33
2018-03-20T21:50:34.685Z,68.26
2018-03-20T21:53:02.995Z,69.49
2018-03-20T21:55:31.905Z,70.04
2018-03-20T21:58:01.889Z,70.34
2018-03-20T22:00:31.108Z,70.98
2018-03-20T22:02:59.758Z,71.34
2018-03-20T22:05:28.876Z,72.36
2018-03-20T22:07:57.280Z,71.91
2018-03-20T22:10:26.450Z,71.33
2018-03-20T22:12:55.900Z,71.20
2018-03-20T22:15:25.737Z,72.25
2018-03-20T22:17:55.296Z,72.44
2018-03-20T22:20:25.151Z,72.28
2018-03-20T22:22:55.020Z,70.82
2018-03-20T22:25:24.063Z,70.62
2018-03-20T22:27:52.388Z,71.75
2018-03-20T22:30:21.944Z,71.74
2018-03-20T22:32:50.903Z,72.57
2018-03-20T22:35:19.184Z,71.18
2018-03-20T22:37:49.595Z,72.22
2018-03-20T22:40:17.907Z,71.62
2018-03-20T22:42:48.219Z,72.76
2018-03-20T22:45:17.281Z,72.22
2018-03-20T22:47:46.571Z,72.67
2018-03-20T22:50:16.683Z,72.56
2018-03-20T22:52:46.035Z,73.11
2018-03-20T22:55:17.321Z,74.11
2018-03-20T22:57:46.738Z,74.29
2018-03-20T23:00:29.316Z,74.27
2018-03-20T23:02:58.384Z,74.60
2018-03-20T23:05:27.022Z,74.85
2018-03-20T23:07:55.534Z,75.71
2018-03-20T23:10:24.996Z,75.59
2018-03-20T23:12:53.308Z,75.95
2018-03-20T23:15:21.660Z,75.81
2018-03-20T23:17:51.115Z,75.54
2018-03-20T23:20:20.144Z,75.58
2018-03-20T23:22:49.252Z,75.88
2018-03-20T23:25:18.221Z,75.53
2018-03-20T23:27:46.497Z,76.24
2018-03-20T23:30:15.633Z,75.64
2018-03-20T23:32:44.287Z,76.87
2018-03-20T23:35:12.599Z,76.49
2018-03-20T23:37:40.975Z,76.18
2018-03-20T23:40:09.665Z,76.21
2018-03-20T23:42:40.403Z,76.20
2018-03-20T23:45:08.736Z,77.04
2018-03-20T23:47:37.427Z,76.94
2018-03-20T23:50:06.449Z,76.94
2018-03-20T23:52:34.765Z,76.72
2018-03-20T23:55:03.061Z,76.24
2018-03-20T23:57:31.441Z,77.15
